HAZ9999 ZUCK-ZUCK
Flight info
| Callsign | HAZ9999 |
|---|---|
| Flight time | 0h 22m |
| Altitude | 12800 |
| Route | LOCAL |
| Aircraft | A35K/H-SDE2E3GHIJ3J4J5LM1ORWXY/LB1D1 |
Departure
| Time | 2026-04-28 13:03 |
|---|---|
| Airport | Chongqing Jiangbei International Airport (ZUCK) |
Arrival
| Time | 2026-04-28 13:25 |
|---|---|
| Airport | Chongqing Jiangbei International Airport (ZUCK) |
| Time | Latitude | Longitude | Altitude | Speed | Heading |
|---|---|---|---|---|---|
| 2026-04-28 13:03 | 29.60280 | 106.62753 | 3740 ft | 138 kts | 15° |
| 2026-04-28 13:03 | 29.60574 | 106.62854 | 3683 ft | 138 kts | 15° |
| 2026-04-28 13:03 | 29.61186 | 106.63063 | 3557 ft | 138 kts | 15° |
| 2026-04-28 13:04 | 29.65906 | 106.64677 | 2619 ft | 135 kts | 15° |
| 2026-04-28 13:05 | 29.66805 | 106.64984 | 2432 ft | 135 kts | 15° |
| 2026-04-28 13:05 | 29.67708 | 106.65284 | 2255 ft | 136 kts | 15° |
| 2026-04-28 13:05 | 29.68612 | 106.65597 | 2083 ft | 136 kts | 16° |
| 2026-04-28 13:05 | 29.69506 | 106.65916 | 1891 ft | 132 kts | 17° |
| 2026-04-28 13:06 | 29.70395 | 106.66226 | 1717 ft | 132 kts | 17° |
| 2026-04-28 13:06 | 29.71314 | 106.66545 | 1522 ft | 144 kts | 14° |
| 2026-04-28 13:06 | 29.72252 | 106.66853 | 1356 ft | 136 kts | 15° |
| 2026-04-28 13:06 | 29.73102 | 106.67135 | 1344 ft | 126 kts | 18° |
| 2026-04-28 13:07 | 29.74032 | 106.67502 | 1623 ft | 141 kts | 19° |
| 2026-04-28 13:07 | 29.74937 | 106.67880 | 2141 ft | 127 kts | 17° |
| 2026-04-28 13:07 | 29.75796 | 106.68164 | 2574 ft | 130 kts | 13° |
| 2026-04-28 13:07 | 29.76716 | 106.68411 | 2856 ft | 144 kts | 11° |
| 2026-04-28 13:08 | 29.77714 | 106.68916 | 3173 ft | 171 kts | 31° |
| 2026-04-28 13:08 | 29.78674 | 106.69890 | 3459 ft | 199 kts | 47° |
| 2026-04-28 13:08 | 29.79465 | 106.71270 | 3753 ft | 222 kts | 62° |
| 2026-04-28 13:08 | 29.80016 | 106.73018 | 4080 ft | 242 kts | 75° |
| 2026-04-28 13:09 | 29.80245 | 106.74947 | 4528 ft | 253 kts | 86° |
| 2026-04-28 13:09 | 29.80134 | 106.77028 | 5097 ft | 259 kts | 98° |
| 2026-04-28 13:09 | 29.79654 | 106.79043 | 5714 ft | 263 kts | 110° |
| 2026-04-28 13:09 | 29.78828 | 106.80943 | 6341 ft | 268 kts | 121° |
| 2026-04-28 13:10 | 29.77599 | 106.82577 | 6953 ft | 274 kts | 140° |
| 2026-04-28 13:10 | 29.75867 | 106.83530 | 7888 ft | 281 kts | 168° |
| 2026-04-28 13:10 | 29.73916 | 106.83419 | 8985 ft | 285 kts | 196° |
| 2026-04-28 13:10 | 29.72065 | 106.82648 | 10063 ft | 290 kts | 202° |
| 2026-04-28 13:11 | 29.70153 | 106.81740 | 10783 ft | 308 kts | 203° |
| 2026-04-28 13:11 | 29.68086 | 106.80762 | 11217 ft | 335 kts | 202° |
| 2026-04-28 13:11 | 29.65848 | 106.79718 | 11715 ft | 357 kts | 202° |
| 2026-04-28 13:11 | 29.63501 | 106.78634 | 12401 ft | 370 kts | 202° |
| 2026-04-28 13:12 | 29.61118 | 106.77539 | 12856 ft | 360 kts | 202° |
| 2026-04-28 13:12 | 29.58861 | 106.76506 | 12656 ft | 336 kts | 202° |
| 2026-04-28 13:12 | 29.56765 | 106.75547 | 12249 ft | 315 kts | 202° |
| 2026-04-28 13:12 | 29.54800 | 106.74649 | 11610 ft | 305 kts | 202° |
| 2026-04-28 13:13 | 29.52836 | 106.73750 | 10851 ft | 301 kts | 202° |
| 2026-04-28 13:13 | 29.50893 | 106.72859 | 10280 ft | 301 kts | 202° |
| 2026-04-28 13:13 | 29.48964 | 106.71977 | 9941 ft | 296 kts | 202° |
| 2026-04-28 13:13 | 29.47059 | 106.71108 | 9526 ft | 293 kts | 202° |
| 2026-04-28 13:14 | 29.45177 | 106.70250 | 9112 ft | 290 kts | 201° |
| 2026-04-28 13:14 | 29.43320 | 106.69452 | 8889 ft | 280 kts | 202° |
| 2026-04-28 13:14 | 29.41529 | 106.68672 | 8698 ft | 270 kts | 198° |
| 2026-04-28 13:14 | 29.39755 | 106.68100 | 8527 ft | 260 kts | 195° |
| 2026-04-28 13:15 | 29.38122 | 106.67396 | 8346 ft | 250 kts | 209° |
| 2026-04-28 13:15 | 29.36834 | 106.66146 | 8137 ft | 239 kts | 234° |
| 2026-04-28 13:15 | 29.36229 | 106.64443 | 7928 ft | 228 kts | 267° |
| 2026-04-28 13:15 | 29.36435 | 106.62707 | 7722 ft | 218 kts | 287° |
| 2026-04-28 13:16 | 29.36862 | 106.61046 | 7432 ft | 216 kts | 289° |
| 2026-04-28 13:16 | 29.37306 | 106.59404 | 7137 ft | 215 kts | 289° |
| 2026-04-28 13:16 | 29.37745 | 106.57764 | 6888 ft | 214 kts | 289° |
| 2026-04-28 13:16 | 29.38172 | 106.56131 | 6609 ft | 214 kts | 288° |
| 2026-04-28 13:17 | 29.38734 | 106.54571 | 6293 ft | 212 kts | 305° |
| 2026-04-28 13:17 | 29.39839 | 106.53557 | 5946 ft | 208 kts | 342° |
| 2026-04-28 13:17 | 29.41259 | 106.53518 | 5630 ft | 206 kts | 13° |
| 2026-04-28 13:17 | 29.42619 | 106.53963 | 5421 ft | 200 kts | 17° |
| 2026-04-28 13:18 | 29.43901 | 106.54433 | 5355 ft | 187 kts | 17° |
| 2026-04-28 13:18 | 29.45132 | 106.54867 | 5132 ft | 184 kts | 16° |
| 2026-04-28 13:18 | 29.46342 | 106.55286 | 4877 ft | 180 kts | 16° |
| 2026-04-28 13:18 | 29.47540 | 106.55700 | 4616 ft | 179 kts | 16° |
| 2026-04-28 13:19 | 29.48714 | 106.56106 | 4434 ft | 171 kts | 16° |
| 2026-04-28 13:19 | 29.49800 | 106.56487 | 4220 ft | 161 kts | 16° |
| 2026-04-28 13:19 | 29.50834 | 106.56850 | 4030 ft | 148 kts | 15° |
| 2026-04-28 13:19 | 29.51799 | 106.57186 | 4022 ft | 144 kts | 16° |
| 2026-04-28 13:20 | 29.52738 | 106.57512 | 4022 ft | 139 kts | 15° |
| 2026-04-28 13:20 | 29.53661 | 106.57830 | 4040 ft | 138 kts | 15° |
| 2026-04-28 13:20 | 29.54578 | 106.58145 | 4043 ft | 137 kts | 15° |
| 2026-04-28 13:20 | 29.55494 | 106.58460 | 4046 ft | 137 kts | 15° |
| 2026-04-28 13:21 | 29.56407 | 106.58775 | 4045 ft | 137 kts | 15° |
| 2026-04-28 13:21 | 29.57321 | 106.59091 | 4036 ft | 138 kts | 15° |
| 2026-04-28 13:21 | 29.58233 | 106.59407 | 3888 ft | 138 kts | 16° |
| 2026-04-28 13:21 | 29.59150 | 106.59725 | 3699 ft | 137 kts | 15° |
| 2026-04-28 13:22 | 29.60060 | 106.60040 | 3522 ft | 136 kts | 15° |
| 2026-04-28 13:22 | 29.60966 | 106.60353 | 3338 ft | 136 kts | 15° |
| 2026-04-28 13:22 | 29.61867 | 106.60665 | 3158 ft | 135 kts | 15° |
| 2026-04-28 13:22 | 29.62759 | 106.60973 | 2952 ft | 132 kts | 16° |
| 2026-04-28 13:23 | 29.63655 | 106.61285 | 2796 ft | 136 kts | 15° |
| 2026-04-28 13:23 | 29.64557 | 106.61596 | 2620 ft | 136 kts | 16° |
| 2026-04-28 13:23 | 29.65455 | 106.61908 | 2429 ft | 135 kts | 15° |
| 2026-04-28 13:23 | 29.66353 | 106.62219 | 2250 ft | 134 kts | 15° |
| 2026-04-28 13:24 | 29.67251 | 106.62530 | 2080 ft | 135 kts | 14° |
| 2026-04-28 13:24 | 29.68149 | 106.62842 | 1878 ft | 135 kts | 16° |
| 2026-04-28 13:24 | 29.69024 | 106.63145 | 1716 ft | 135 kts | 15° |
| 2026-04-28 13:24 | 29.69919 | 106.63457 | 1475 ft | 132 kts | 17° |
| 2026-04-28 13:25 | 29.70798 | 106.63767 | 1405 ft | 134 kts | 17° |
| 2026-04-28 13:25 | 29.71621 | 106.64045 | 1364 ft | 103 kts | 17° |
| 2026-04-28 13:25 | 29.72090 | 106.64212 | 1365 ft | 55 kts | 17° |
| 2026-04-28 13:25 | 29.72217 | 106.64186 | 1365 ft | 7 kts | 304° |
| 2026-04-28 13:26 | 29.72259 | 106.64068 | 1365 ft | 25 kts | 284° |
| 2026-04-28 13:26 | 29.72358 | 106.63933 | 1365 ft | 24 kts | 333° |
| 2026-04-28 13:26 | 29.72403 | 106.63907 | 1365 ft | 0 kts | 334° |